createdAt,value
2022-10-30T00:00:49.726Z,97646.00
2022-10-30T00:03:17.184Z,97646.00
2022-10-30T00:05:47.595Z,97644.00
2022-10-30T00:08:17.130Z,97637.00
2022-10-30T00:10:46.432Z,97639.00
2022-10-30T00:13:14.197Z,97644.00
2022-10-30T00:15:47.137Z,97639.00
2022-10-30T00:18:14.463Z,97646.00
2022-10-30T00:20:41.202Z,97644.00
2022-10-30T00:23:07.968Z,97644.00
2022-10-30T00:25:37.749Z,97640.00
2022-10-30T00:28:06.420Z,97643.00
2022-10-30T00:30:34.960Z,97649.00
2022-10-30T00:33:02.159Z,97647.00
2022-10-30T00:35:29.581Z,97641.00
2022-10-30T00:37:56.844Z,97637.00
2022-10-30T00:40:24.534Z,97639.00
2022-10-30T00:42:52.015Z,97632.00
2022-10-30T00:45:18.918Z,97635.00
2022-10-30T00:48:00.761Z,97636.00
2022-10-30T00:50:34.457Z,97629.00
2022-10-30T00:53:05.710Z,97631.00
2022-10-30T00:55:41.342Z,97622.00
2022-10-30T00:58:14.089Z,97624.00
2022-10-30T01:00:46.488Z,97623.00
2022-10-30T01:03:13.607Z,97616.00
2022-10-30T01:05:43.036Z,97627.00
2022-10-30T01:08:09.873Z,97616.00
2022-10-30T01:10:36.746Z,97613.00
2022-10-30T01:13:03.912Z,97609.00
2022-10-30T01:15:39.893Z,97607.00
2022-10-30T01:18:42.913Z,97604.00
2022-10-30T01:21:33.912Z,97613.00
2022-10-30T01:24:22.360Z,97605.00
2022-10-30T01:27:26.003Z,97606.00
2022-10-30T01:30:24.807Z,97596.00
2022-10-30T01:33:43.694Z,97599.00
2022-10-30T01:36:35.996Z,97591.00
2022-10-30T01:39:14.461Z,97593.00
2022-10-30T01:41:41.623Z,97595.00
2022-10-30T01:44:14.808Z,97589.00
2022-10-30T01:47:15.708Z,97593.00
2022-10-30T01:50:36.416Z,97587.00
2022-10-30T01:53:53.220Z,97596.00
2022-10-30T01:56:49.749Z,97586.00
2022-10-30T01:59:41.865Z,97580.00
2022-10-30T02:02:10.174Z,97590.00
2022-10-30T02:04:38.093Z,97581.00
2022-10-30T02:07:05.332Z,97586.00
2022-10-30T02:09:32.125Z,97591.00
2022-10-30T02:11:59.800Z,97585.00
2022-10-30T02:14:36.502Z,97583.00
2022-10-30T02:17:06.120Z,97589.00
2022-10-30T02:19:32.923Z,97579.00
2022-10-30T02:22:00.224Z,97586.00
2022-10-30T02:24:28.816Z,97584.00
2022-10-30T02:26:55.566Z,97580.00
2022-10-30T02:29:22.643Z,97576.00
2022-10-30T02:31:49.783Z,97573.00
2022-10-30T02:34:16.805Z,97577.00
2022-10-30T02:36:43.773Z,97581.00
2022-10-30T02:39:10.632Z,97575.00
2022-10-30T02:41:38.029Z,97577.00
2022-10-30T02:44:06.789Z,97578.00
2022-10-30T02:46:34.434Z,97574.00
2022-10-30T02:49:01.695Z,97568.00
2022-10-30T02:51:28.655Z,97568.00
2022-10-30T02:53:55.703Z,97570.00
2022-10-30T02:56:22.469Z,97570.00
2022-10-30T02:58:49.476Z,97562.00
2022-10-30T03:01:19.568Z,97571.00
2022-10-30T03:03:47.522Z,97570.00
2022-10-30T03:06:17.257Z,97570.00
2022-10-30T03:08:44.435Z,97571.00
2022-10-30T03:11:15.108Z,97561.00
2022-10-30T03:13:43.860Z,97568.00
2022-10-30T03:16:18.674Z,97570.00
2022-10-30T03:18:46.562Z,97566.00
2022-10-30T03:21:17.866Z,97563.00
2022-10-30T03:23:45.216Z,97564.00
2022-10-30T03:26:12.308Z,97564.00
2022-10-30T03:28:39.204Z,97564.00
2022-10-30T03:31:16.015Z,97566.00
2022-10-30T03:33:43.648Z,97563.00
2022-10-30T03:36:12.981Z,97567.00
2022-10-30T03:38:40.140Z,97562.00
2022-10-30T03:41:07.382Z,97556.00
2022-10-30T03:43:34.406Z,97557.00
2022-10-30T03:46:01.234Z,97562.00
2022-10-30T03:48:29.435Z,97557.00
2022-10-30T03:50:58.552Z,97554.00
2022-10-30T03:53:26.462Z,97561.00
2022-10-30T03:56:00.973Z,97543.00
2022-10-30T03:58:29.592Z,97541.00
2022-10-30T04:01:05.099Z,97549.00
2022-10-30T04:03:32.329Z,97541.00
2022-10-30T04:05:59.613Z,97552.00
2022-10-30T04:08:26.457Z,97543.00
2022-10-30T04:10:53.553Z,97549.00
2022-10-30T04:13:20.419Z,97544.00
2022-10-30T04:15:56.399Z,97556.00
2022-10-30T04:18:25.417Z,97550.00
2022-10-30T04:20:52.434Z,97544.00
2022-10-30T04:23:21.882Z,97552.00
2022-10-30T04:25:49.323Z,97550.00
2022-10-30T04:28:16.738Z,97544.00
2022-10-30T04:30:43.798Z,97542.00
2022-10-30T04:33:12.790Z,97553.00
2022-10-30T04:35:40.780Z,97553.00
2022-10-30T04:38:13.879Z,97539.00
2022-10-30T04:40:42.982Z,97544.00
2022-10-30T04:43:11.132Z,97538.00
2022-10-30T04:45:38.776Z,97525.00
2022-10-30T04:48:11.413Z,97542.00
2022-10-30T04:50:38.949Z,97535.00
2022-10-30T04:53:14.254Z,97530.00
2022-10-30T04:55:41.101Z,97538.00
2022-10-30T04:58:09.448Z,97533.00
2022-10-30T05:00:36.697Z,97531.00
2022-10-30T05:03:03.934Z,97536.00
2022-10-30T05:05:32.490Z,97527.00
2022-10-30T05:07:59.779Z,97526.00
2022-10-30T05:10:27.029Z,97525.00
2022-10-30T05:12:54.363Z,97515.00
2022-10-30T05:15:21.698Z,97514.00
2022-10-30T05:17:53.762Z,97519.00
2022-10-30T05:20:21.049Z,97524.00
2022-10-30T05:22:55.967Z,97518.00
2022-10-30T05:25:23.571Z,97509.00
2022-10-30T05:27:50.383Z,97523.00
2022-10-30T05:30:17.402Z,97522.00
2022-10-30T05:32:44.391Z,97520.00
2022-10-30T05:35:11.208Z,97514.00
2022-10-30T05:37:38.213Z,97515.00
2022-10-30T05:40:05.861Z,97519.00
2022-10-30T05:42:32.843Z,97512.00
2022-10-30T05:45:01.312Z,97516.00
2022-10-30T05:47:28.968Z,97524.00
2022-10-30T05:49:55.743Z,97524.00
2022-10-30T05:52:22.545Z,97524.00
2022-10-30T05:54:49.476Z,97521.00
2022-10-30T05:57:16.347Z,97515.00
2022-10-30T05:59:43.381Z,97524.00
2022-10-30T06:02:10.281Z,97517.00
2022-10-30T06:04:37.231Z,97527.00
2022-10-30T06:07:04.157Z,97526.00
2022-10-30T06:09:30.911Z,97521.00
2022-10-30T06:11:58.544Z,97531.00
2022-10-30T06:14:25.386Z,97523.00
2022-10-30T06:16:52.164Z,97524.00
2022-10-30T06:19:19.270Z,97528.00
2022-10-30T06:21:46.920Z,97526.00
2022-10-30T06:24:14.205Z,97522.00
2022-10-30T06:26:41.560Z,97525.00
2022-10-30T06:29:08.344Z,97529.00
2022-10-30T06:31:35.122Z,97533.00
2022-10-30T06:34:01.903Z,97535.00
2022-10-30T06:36:28.892Z,97537.00
2022-10-30T06:38:55.680Z,97537.00
2022-10-30T06:41:26.070Z,97540.00
2022-10-30T06:43:56.073Z,97536.00
2022-10-30T06:46:25.692Z,97525.00
2022-10-30T06:48:56.117Z,97536.00
2022-10-30T06:51:23.168Z,97542.00
2022-10-30T06:53:49.993Z,97545.00
2022-10-30T06:56:16.738Z,97542.00
2022-10-30T06:58:43.975Z,97539.00
2022-10-30T07:01:11.107Z,97547.00
2022-10-30T07:03:37.889Z,97546.00
2022-10-30T07:06:04.853Z,97546.00
2022-10-30T07:08:32.566Z,97543.00
2022-10-30T07:10:59.336Z,97545.00
2022-10-30T07:13:26.091Z,97549.00
2022-10-30T07:15:52.904Z,97552.00
2022-10-30T07:18:19.739Z,97544.00
2022-10-30T07:20:46.546Z,97543.00
2022-10-30T07:23:13.517Z,97549.00
2022-10-30T07:25:40.295Z,97549.00
2022-10-30T07:28:07.078Z,97547.00
2022-10-30T07:30:33.865Z,97547.00
2022-10-30T07:33:04.522Z,97549.00
2022-10-30T07:35:32.929Z,97557.00
2022-10-30T07:38:10.168Z,97553.00
2022-10-30T07:40:37.385Z,97553.00
2022-10-30T07:43:05.253Z,97544.00
2022-10-30T07:45:32.862Z,97550.00
2022-10-30T07:48:00.317Z,97547.00
2022-10-30T07:50:27.567Z,97552.00
2022-10-30T07:52:54.539Z,97552.00
2022-10-30T07:55:21.368Z,97553.00
2022-10-30T07:57:48.395Z,97544.00
2022-10-30T08:00:16.863Z,97546.00
2022-10-30T08:02:44.130Z,97544.00
2022-10-30T08:05:11.264Z,97551.00
2022-10-30T08:07:39.590Z,97548.00
2022-10-30T08:10:07.786Z,97552.00
2022-10-30T08:12:35.448Z,97549.00
2022-10-30T08:15:02.264Z,97550.00
2022-10-30T08:17:29.261Z,97550.00
2022-10-30T08:19:57.086Z,97548.00
2022-10-30T08:22:24.535Z,97549.00
2022-10-30T08:24:51.490Z,97546.00
2022-10-30T08:27:18.379Z,97547.00
2022-10-30T08:29:45.155Z,97549.00
2022-10-30T08:32:11.943Z,97541.00
2022-10-30T08:34:38.740Z,97536.00
2022-10-30T08:37:07.786Z,97537.00
2022-10-30T08:39:34.606Z,97533.00
2022-10-30T08:42:01.423Z,97533.00
2022-10-30T08:44:28.242Z,97539.00
2022-10-30T08:46:55.072Z,97535.00
2022-10-30T08:49:21.989Z,97538.00
2022-10-30T08:51:48.923Z,97534.00
2022-10-30T08:54:15.781Z,97534.00
2022-10-30T08:56:42.666Z,97540.00
2022-10-30T08:59:09.558Z,97534.00
2022-10-30T09:01:36.800Z,97540.00
2022-10-30T09:04:04.119Z,97536.00
2022-10-30T09:06:31.937Z,97530.00
2022-10-30T09:08:59.108Z,97535.00
2022-10-30T09:11:26.126Z,97541.00
2022-10-30T09:13:53.029Z,97532.00
2022-10-30T09:16:19.995Z,97530.00
2022-10-30T09:18:46.920Z,97536.00
2022-10-30T09:21:13.842Z,97537.00
2022-10-30T09:23:43.038Z,97533.00
2022-10-30T09:26:12.058Z,97535.00
2022-10-30T09:28:40.254Z,97537.00
2022-10-30T09:31:07.047Z,97539.00
2022-10-30T09:33:33.856Z,97538.00
2022-10-30T09:36:02.648Z,97537.00
2022-10-30T09:38:29.734Z,97540.00
2022-10-30T09:41:26.656Z,97541.00
2022-10-30T09:44:24.646Z,97542.00
2022-10-30T09:47:03.225Z,97544.00
2022-10-30T09:49:50.737Z,97538.00
2022-10-30T09:52:26.407Z,97545.00
2022-10-30T09:55:12.091Z,97547.00
2022-10-30T09:58:02.823Z,97539.00
2022-10-30T10:01:33.603Z,97547.00
2022-10-30T10:04:26.497Z,97540.00
2022-10-30T10:07:06.857Z,97541.00
2022-10-30T10:09:35.320Z,97537.00
2022-10-30T10:12:11.370Z,97543.00
2022-10-30T10:14:44.820Z,97546.00
2022-10-30T10:17:18.615Z,97544.00
2022-10-30T10:19:59.261Z,97545.00
2022-10-30T10:22:49.503Z,97535.00
2022-10-30T10:25:20.181Z,97539.00
2022-10-30T10:28:44.717Z,97545.00
2022-10-30T10:31:36.905Z,97540.00
2022-10-30T10:34:06.301Z,97541.00
2022-10-30T10:36:58.234Z,97541.00
2022-10-30T10:39:42.962Z,97533.00
2022-10-30T10:42:34.640Z,97516.00
2022-10-30T10:45:33.473Z,97529.00
2022-10-30T10:48:55.977Z,97532.00
2022-10-30T10:51:37.945Z,97529.00
2022-10-30T10:54:17.545Z,97532.00
2022-10-30T10:56:48.577Z,97513.00
2022-10-30T10:59:21.069Z,97529.00
2022-10-30T11:02:09.815Z,97520.00
2022-10-30T11:04:41.459Z,97514.00
2022-10-30T11:07:26.375Z,97504.00
2022-10-30T11:09:55.103Z,97515.00
2022-10-30T11:12:36.503Z,97516.00
2022-10-30T11:15:23.617Z,97516.00
2022-10-30T11:18:11.002Z,97509.00
2022-10-30T11:21:04.740Z,97503.00
2022-10-30T11:23:42.942Z,97505.00
2022-10-30T11:26:18.765Z,97509.00
2022-10-30T11:29:04.562Z,97512.00
2022-10-30T11:31:44.104Z,97498.00
2022-10-30T11:34:18.085Z,97488.00
2022-10-30T11:36:54.133Z,97496.00
2022-10-30T11:39:30.913Z,97495.00
2022-10-30T11:42:13.378Z,97494.00
2022-10-30T11:44:49.387Z,97497.00
2022-10-30T11:47:21.594Z,97488.00
2022-10-30T11:49:57.927Z,97495.00
2022-10-30T11:52:26.875Z,97494.00
2022-10-30T11:55:10.941Z,97484.00
2022-10-30T11:57:48.589Z,97487.00
2022-10-30T12:00:27.747Z,97490.00
2022-10-30T12:03:00.844Z,97486.00
2022-10-30T12:05:37.618Z,97485.00
2022-10-30T12:08:07.378Z,97481.00
2022-10-30T12:10:57.611Z,97479.00
2022-10-30T12:13:26.067Z,97481.00
2022-10-30T12:16:15.312Z,97472.00
2022-10-30T12:18:54.401Z,97474.00
2022-10-30T12:21:21.299Z,97476.00
2022-10-30T12:23:57.630Z,97474.00
2022-10-30T12:26:26.316Z,97474.00
2022-10-30T12:29:01.384Z,97466.00
2022-10-30T12:31:39.676Z,97473.00
2022-10-30T12:34:23.839Z,97466.00
2022-10-30T12:37:07.345Z,97470.00
2022-10-30T12:40:00.171Z,97460.00
2022-10-30T12:42:28.034Z,97465.00
2022-10-30T12:45:16.734Z,97463.00
2022-10-30T12:48:11.913Z,97463.00
2022-10-30T12:50:57.516Z,97465.00
2022-10-30T12:53:42.672Z,97451.00
2022-10-30T12:56:18.751Z,97457.00
2022-10-30T12:59:06.189Z,97454.00
2022-10-30T13:01:52.251Z,97457.00
2022-10-30T13:04:25.810Z,97453.00
2022-10-30T13:07:36.152Z,97459.00
2022-10-30T13:10:22.958Z,97451.00
2022-10-30T13:12:54.490Z,97446.00
2022-10-30T13:15:36.472Z,97445.00
2022-10-30T13:18:20.488Z,97440.00
2022-10-30T13:21:08.549Z,97450.00
2022-10-30T13:23:59.989Z,97448.00
2022-10-30T13:26:44.589Z,97444.00
2022-10-30T13:29:37.335Z,97443.00
2022-10-30T13:32:12.990Z,97446.00
2022-10-30T13:35:17.813Z,97450.00
2022-10-30T13:37:58.185Z,97445.00
2022-10-30T13:40:54.943Z,97446.00
2022-10-30T13:43:42.948Z,97446.00
2022-10-30T13:46:35.019Z,97453.00
2022-10-30T13:49:40.065Z,97446.00
2022-10-30T13:52:15.256Z,97453.00
2022-10-30T13:54:59.263Z,97445.00
2022-10-30T13:58:02.191Z,97441.00
2022-10-30T14:00:55.469Z,97445.00
2022-10-30T14:03:42.834Z,97436.00
2022-10-30T14:06:50.769Z,97440.00
2022-10-30T14:10:05.602Z,97444.00
2022-10-30T14:12:52.416Z,97446.00
2022-10-30T14:15:45.744Z,97445.00
2022-10-30T14:18:12.452Z,97451.00
2022-10-30T14:20:44.972Z,97445.00
2022-10-30T14:23:23.500Z,97449.00
2022-10-30T14:26:02.898Z,97451.00
2022-10-30T14:28:51.013Z,97445.00
2022-10-30T14:31:34.723Z,97449.00
2022-10-30T14:34:01.859Z,97453.00
2022-10-30T14:36:43.659Z,97451.00
2022-10-30T14:39:12.946Z,97455.00
2022-10-30T14:42:16.885Z,97454.00
2022-10-30T14:45:08.497Z,97458.00
2022-10-30T14:47:43.347Z,97456.00
2022-10-30T14:50:38.204Z,97463.00
2022-10-30T14:53:20.370Z,97450.00
2022-10-30T14:56:14.400Z,97449.00
2022-10-30T14:58:41.494Z,97451.00
2022-10-30T15:01:36.298Z,97454.00
2022-10-30T15:04:24.230Z,97452.00
2022-10-30T15:07:05.742Z,97451.00
2022-10-30T15:10:11.766Z,97452.00
2022-10-30T15:13:01.380Z,97447.00
2022-10-30T15:15:30.122Z,97450.00
2022-10-30T15:18:02.972Z,97456.00
2022-10-30T15:20:32.898Z,97450.00
2022-10-30T15:23:09.436Z,97447.00
2022-10-30T15:25:49.524Z,97457.00
2022-10-30T15:31:00.947Z,97456.00
2022-10-30T15:33:28.436Z,97461.00
2022-10-30T15:35:55.214Z,97454.00
2022-10-30T15:38:22.555Z,97460.00
2022-10-30T15:40:49.642Z,97463.00
2022-10-30T15:43:17.932Z,97468.00
2022-10-30T15:45:49.285Z,97467.00
2022-10-30T15:48:26.386Z,97460.00
2022-10-30T15:51:06.084Z,97467.00
2022-10-30T15:53:43.673Z,97457.00
2022-10-30T15:56:31.412Z,97461.00
2022-10-30T15:59:02.823Z,97464.00
2022-10-30T16:01:39.558Z,97459.00
2022-10-30T16:04:16.872Z,97469.00
2022-10-30T16:06:59.577Z,97469.00
2022-10-30T16:09:28.580Z,97471.00
2022-10-30T16:11:59.574Z,97485.00
2022-10-30T16:14:29.645Z,97468.00
2022-10-30T16:17:00.562Z,97467.00
2022-10-30T16:19:39.894Z,97472.00
2022-10-30T16:22:15.791Z,97470.00
2022-10-30T16:24:42.906Z,97474.00
2022-10-30T16:27:24.462Z,97477.00
2022-10-30T16:29:54.228Z,97478.00
2022-10-30T16:32:26.010Z,97484.00
2022-10-30T16:35:00.861Z,97481.00
2022-10-30T16:37:35.573Z,97478.00
2022-10-30T16:40:17.868Z,97483.00
2022-10-30T16:42:57.970Z,97481.00
2022-10-30T16:45:36.683Z,97486.00
2022-10-30T16:50:44.508Z,97490.00
2022-10-30T16:53:24.522Z,97492.00
2022-10-30T16:55:52.879Z,97495.00
2022-10-30T16:58:20.994Z,97489.00
2022-10-30T17:01:01.189Z,97496.00
2022-10-30T17:03:34.005Z,97501.00
2022-10-30T17:06:05.780Z,97500.00
2022-10-30T17:08:43.379Z,97500.00
2022-10-30T17:11:34.277Z,97505.00
2022-10-30T17:14:06.908Z,97501.00
2022-10-30T17:16:37.476Z,97499.00
2022-10-30T17:19:32.333Z,97493.00
2022-10-30T17:22:10.456Z,97513.00
2022-10-30T17:24:38.518Z,97517.00
2022-10-30T17:27:14.575Z,97514.00
2022-10-30T17:29:41.254Z,97521.00
2022-10-30T17:32:27.190Z,97518.00
2022-10-30T17:35:18.050Z,97517.00
2022-10-30T17:37:45.058Z,97510.00
2022-10-30T17:40:13.781Z,97510.00
2022-10-30T17:42:41.543Z,97524.00
2022-10-30T17:45:15.735Z,97520.00
2022-10-30T17:47:42.694Z,97525.00
2022-10-30T17:50:09.889Z,97528.00
2022-10-30T17:52:36.836Z,97533.00
2022-10-30T17:55:22.120Z,97534.00
2022-10-30T17:57:48.990Z,97538.00
2022-10-30T18:00:15.983Z,97539.00
2022-10-30T18:02:42.895Z,97540.00
2022-10-30T18:05:17.677Z,97542.00
2022-10-30T18:07:45.176Z,97547.00
2022-10-30T18:10:12.887Z,97550.00
2022-10-30T18:12:41.356Z,97542.00
2022-10-30T18:15:30.459Z,97548.00
2022-10-30T18:17:57.799Z,97549.00
2022-10-30T18:20:25.345Z,97551.00
2022-10-30T18:22:53.549Z,97555.00
2022-10-30T18:25:28.241Z,97547.00
2022-10-30T18:27:55.058Z,97540.00
2022-10-30T18:30:22.465Z,97547.00
2022-10-30T18:32:49.882Z,97544.00
2022-10-30T18:35:39.251Z,97553.00
2022-10-30T18:38:08.968Z,97548.00
2022-10-30T18:40:36.292Z,97555.00
2022-10-30T18:43:03.673Z,97548.00
2022-10-30T18:45:37.613Z,97545.00
2022-10-30T18:48:05.388Z,97550.00
2022-10-30T18:50:34.259Z,97550.00
2022-10-30T18:53:02.382Z,97553.00
2022-10-30T18:55:40.468Z,97548.00
2022-10-30T18:58:08.781Z,97551.00
2022-10-30T19:00:58.312Z,97553.00
2022-10-30T19:03:24.929Z,97547.00
2022-10-30T19:05:52.160Z,97542.00
2022-10-30T19:08:19.028Z,97542.00
2022-10-30T19:10:47.541Z,97544.00
2022-10-30T19:13:19.755Z,97541.00
2022-10-30T19:15:59.034Z,97542.00
2022-10-30T19:18:28.903Z,97540.00
2022-10-30T19:21:05.211Z,97551.00
2022-10-30T19:23:33.913Z,97542.00
2022-10-30T19:26:01.357Z,97548.00
2022-10-30T19:28:30.999Z,97542.00
2022-10-30T19:30:59.188Z,97541.00
2022-10-30T19:33:27.154Z,97543.00
2022-10-30T19:35:57.426Z,97542.00
2022-10-30T19:38:25.713Z,97547.00
2022-10-30T19:40:53.239Z,97538.00
2022-10-30T19:43:20.645Z,97543.00
2022-10-30T19:45:51.283Z,97551.00
2022-10-30T19:48:56.102Z,97547.00
2022-10-30T19:51:12.341Z,97552.00
2022-10-30T19:53:40.425Z,97549.00
2022-10-30T19:56:10.174Z,97548.00
2022-10-30T19:58:37.207Z,97557.00
2022-10-30T20:01:04.486Z,97558.00
2022-10-30T20:03:31.926Z,97560.00
2022-10-30T20:06:00.098Z,97554.00
2022-10-30T20:08:28.625Z,97556.00
2022-10-30T20:11:00.121Z,97553.00
2022-10-30T20:13:28.876Z,97556.00
2022-10-30T20:16:00.183Z,97548.00
2022-10-30T20:18:31.846Z,97555.00
2022-10-30T20:21:02.569Z,97559.00
2022-10-30T20:23:29.994Z,97558.00
2022-10-30T20:26:04.658Z,97566.00
2022-10-30T20:28:34.536Z,97560.00
2022-10-30T20:31:01.949Z,97562.00
2022-10-30T20:33:29.566Z,97562.00
2022-10-30T20:35:56.713Z,97559.00
2022-10-30T20:38:35.278Z,97556.00
2022-10-30T20:41:04.524Z,97560.00
2022-10-30T20:43:39.433Z,97562.00
2022-10-30T20:46:09.790Z,97563.00
2022-10-30T20:48:38.082Z,97559.00
2022-10-30T20:51:06.804Z,97560.00
2022-10-30T20:53:33.977Z,97558.00
2022-10-30T20:56:00.846Z,97552.00
2022-10-30T20:58:28.069Z,97551.00
2022-10-30T21:00:58.179Z,97553.00
2022-10-30T21:03:26.474Z,97555.00
2022-10-30T21:05:59.834Z,97562.00
2022-10-30T21:08:28.927Z,97556.00
2022-10-30T21:11:03.428Z,97553.00
2022-10-30T21:13:30.616Z,97556.00
2022-10-30T21:16:05.966Z,97548.00
2022-10-30T21:18:32.923Z,97551.00
2022-10-30T21:21:11.381Z,97551.00
2022-10-30T21:23:38.450Z,97560.00
2022-10-30T21:26:07.559Z,97559.00
2022-10-30T21:28:34.319Z,97560.00
2022-10-30T21:31:03.269Z,97554.00
2022-10-30T21:33:35.533Z,97558.00
2022-10-30T21:36:14.732Z,97553.00
2022-10-30T21:38:43.075Z,97567.00
2022-10-30T21:41:12.729Z,97565.00
2022-10-30T21:43:39.586Z,97556.00
2022-10-30T21:46:12.458Z,97555.00
2022-10-30T21:48:39.813Z,97565.00
2022-10-30T21:51:12.702Z,97561.00
2022-10-30T21:53:40.655Z,97556.00
2022-10-30T21:56:11.055Z,97558.00
2022-10-30T21:58:38.096Z,97558.00
2022-10-30T22:01:06.672Z,97552.00
2022-10-30T22:03:33.990Z,97557.00
2022-10-30T22:06:07.552Z,97544.00
2022-10-30T22:08:35.066Z,97552.00
2022-10-30T22:11:08.975Z,97552.00
2022-10-30T22:13:36.868Z,97551.00
2022-10-30T22:16:06.284Z,97554.00
2022-10-30T22:18:33.936Z,97545.00
2022-10-30T22:21:07.861Z,97548.00
2022-10-30T22:23:36.556Z,97547.00
2022-10-30T22:26:07.612Z,97545.00
2022-10-30T22:28:35.017Z,97548.00
2022-10-30T22:31:14.563Z,97540.00
2022-10-30T22:33:42.161Z,97532.00
2022-10-30T22:36:25.809Z,97534.00
2022-10-30T22:39:02.335Z,97535.00
2022-10-30T22:41:34.526Z,97542.00
2022-10-30T22:44:12.135Z,97540.00
2022-10-30T22:46:39.309Z,97544.00
2022-10-30T22:49:07.266Z,97537.00
2022-10-30T22:51:37.264Z,97542.00
2022-10-30T22:54:06.898Z,97543.00
2022-10-30T22:56:36.158Z,97542.00
2022-10-30T22:59:11.450Z,97546.00
2022-10-30T23:01:39.504Z,97545.00
2022-10-30T23:04:09.585Z,97538.00
2022-10-30T23:06:36.925Z,97537.00
2022-10-30T23:09:08.547Z,97545.00
2022-10-30T23:11:35.839Z,97541.00
2022-10-30T23:14:02.687Z,97542.00
2022-10-30T23:16:29.521Z,97536.00
2022-10-30T23:18:58.872Z,97541.00
2022-10-30T23:21:29.709Z,97547.00
2022-10-30T23:23:57.532Z,97536.00
2022-10-30T23:26:30.861Z,97535.00
2022-10-30T23:28:59.519Z,97535.00
2022-10-30T23:31:29.960Z,97540.00
2022-10-30T23:33:59.696Z,97547.00
2022-10-30T23:36:26.773Z,97541.00
2022-10-30T23:39:01.842Z,97545.00
2022-10-30T23:41:31.337Z,97547.00
2022-10-30T23:44:01.279Z,97543.00
2022-10-30T23:46:29.171Z,97539.00
2022-10-30T23:48:56.702Z,97546.00
2022-10-30T23:51:24.099Z,97538.00
2022-10-30T23:53:51.231Z,97551.00
2022-10-30T23:56:18.645Z,97544.00
2022-10-30T23:58:48.744Z,97544.00
